createdAt,value
2018-10-18T00:04:08.250Z,8.80
2018-10-18T00:09:37.479Z,8.70
2018-10-18T00:15:07.925Z,8.70
2018-10-18T00:20:37.155Z,8.60
2018-10-18T00:26:06.765Z,8.60
2018-10-18T00:31:36.051Z,8.50
2018-10-18T00:37:05.992Z,8.50
2018-10-18T00:42:35.219Z,8.40
2018-10-18T00:48:04.571Z,8.40
2018-10-18T00:53:33.852Z,8.30
2018-10-18T00:59:03.168Z,8.20
2018-10-18T01:04:32.386Z,8.20
2018-10-18T01:10:01.796Z,8.10
2018-10-18T01:15:31.025Z,8.10
2018-10-18T01:21:00.325Z,8.00
2018-10-18T01:26:29.590Z,8.00
2018-10-18T01:32:00.132Z,7.90
2018-10-18T01:37:30.147Z,7.90
2018-10-18T01:42:59.447Z,7.90
2018-10-18T01:48:29.898Z,7.80
2018-10-18T01:53:59.257Z,7.80
2018-10-18T01:59:28.521Z,7.70
2018-10-18T02:04:57.721Z,7.70
2018-10-18T02:10:27.991Z,7.60
2018-10-18T02:15:57.275Z,7.60
2018-10-18T02:21:26.529Z,7.60
2018-10-18T02:26:55.863Z,7.50
2018-10-18T02:32:25.114Z,7.50
2018-10-18T02:37:54.368Z,7.50
2018-10-18T02:43:23.579Z,7.40
2018-10-18T02:48:52.798Z,7.40
2018-10-18T02:54:22.085Z,7.30
2018-10-18T02:59:51.265Z,7.30
2018-10-18T03:05:20.520Z,7.30
2018-10-18T03:10:49.796Z,7.30
2018-10-18T03:16:19.027Z,7.20
2018-10-18T03:21:48.336Z,7.20
2018-10-18T03:27:17.544Z,7.20
2018-10-18T03:32:46.847Z,7.10
2018-10-18T03:38:16.241Z,7.10
2018-10-18T03:43:45.485Z,7.00
2018-10-18T03:49:14.742Z,7.00
2018-10-18T03:54:45.064Z,7.00
2018-10-18T04:00:14.384Z,6.90
2018-10-18T04:05:43.608Z,6.90
2018-10-18T04:11:12.872Z,6.90
2018-10-18T04:16:42.257Z,6.90
2018-10-18T04:22:11.607Z,6.80
2018-10-18T04:27:40.920Z,6.80
2018-10-18T04:33:10.280Z,6.80
2018-10-18T04:38:39.528Z,6.80
2018-10-18T04:44:08.924Z,6.70
2018-10-18T04:49:38.251Z,6.70
2018-10-18T04:55:08.647Z,6.70
2018-10-18T05:00:37.891Z,6.70
2018-10-18T05:06:08.189Z,6.60
2018-10-18T05:11:37.481Z,6.60
2018-10-18T05:17:07.225Z,6.60
2018-10-18T05:22:36.495Z,6.60
2018-10-18T05:28:06.923Z,6.50
2018-10-18T05:33:36.253Z,6.60
2018-10-18T05:39:09.757Z,6.50
2018-10-18T05:44:40.024Z,6.50
2018-10-18T05:50:10.164Z,6.60
2018-10-18T05:55:39.471Z,6.60
2018-10-18T06:01:08.958Z,6.70
2018-10-18T06:06:38.340Z,6.70
2018-10-18T06:12:07.738Z,6.80
2018-10-18T06:17:37.040Z,7.00
2018-10-18T06:23:06.928Z,7.10
2018-10-18T06:28:36.392Z,7.30
2018-10-18T06:34:06.078Z,7.40
2018-10-18T06:39:35.525Z,7.60
2018-10-18T06:45:07.531Z,7.80
2018-10-18T06:50:36.900Z,8.10
2018-10-18T06:56:06.288Z,8.30
2018-10-18T07:01:35.603Z,8.50
2018-10-18T07:07:05.349Z,8.70
2018-10-18T07:12:34.812Z,9.00
2018-10-18T07:18:04.345Z,9.30
2018-10-18T07:23:33.806Z,9.60
2018-10-18T07:29:03.168Z,9.90
2018-10-18T07:34:32.517Z,10.10
2018-10-18T07:40:02.088Z,10.30
2018-10-18T07:45:31.597Z,10.60
2018-10-18T07:51:00.928Z,10.90
2018-10-18T07:56:30.301Z,11.20
2018-10-18T08:01:59.765Z,11.40
2018-10-18T08:07:29.116Z,11.50
2018-10-18T08:12:58.525Z,11.70
2018-10-18T08:18:27.848Z,11.90
2018-10-18T08:23:57.264Z,12.30
2018-10-18T08:29:27.150Z,12.60
2018-10-18T08:34:56.488Z,12.90
2018-10-18T08:40:25.928Z,13.10
2018-10-18T08:45:55.249Z,13.30
2018-10-18T08:51:24.622Z,13.50
2018-10-18T08:56:53.962Z,13.80
2018-10-18T09:02:23.311Z,14.20
2018-10-18T09:07:52.760Z,14.50
2018-10-18T09:13:22.081Z,14.70
2018-10-18T09:18:51.409Z,14.90
2018-10-18T09:24:20.756Z,15.10
2018-10-18T09:29:50.084Z,15.40
2018-10-18T09:35:19.449Z,15.60
2018-10-18T09:40:48.881Z,15.80
2018-10-18T09:46:18.240Z,16.10
2018-10-18T09:51:47.597Z,16.30
2018-10-18T09:57:16.980Z,16.50
2018-10-18T10:03:20.936Z,16.70
2018-10-18T10:08:50.321Z,16.80
2018-10-18T10:14:19.797Z,17.00
2018-10-18T10:19:49.129Z,17.20
2018-10-18T10:25:18.611Z,17.20
2018-10-18T10:30:47.869Z,17.10
2018-10-18T10:36:17.224Z,17.30
2018-10-18T10:41:46.562Z,17.30
2018-10-18T10:47:15.875Z,17.10
2018-10-18T10:52:45.304Z,17.40
2018-10-18T10:58:14.758Z,17.70
2018-10-18T11:03:44.420Z,18.00
2018-10-18T11:09:13.928Z,18.10
2018-10-18T11:14:43.238Z,18.00
2018-10-18T11:20:12.715Z,17.90
2018-10-18T11:25:41.981Z,17.90
2018-10-18T11:31:11.527Z,18.00
2018-10-18T11:36:40.841Z,18.30
2018-10-18T11:42:10.201Z,18.50
2018-10-18T11:47:39.569Z,18.70
2018-10-18T11:53:08.966Z,18.90
2018-10-18T11:58:39.533Z,19.00
2018-10-18T12:04:08.901Z,18.80
2018-10-18T12:09:38.309Z,18.60
2018-10-18T12:15:09.512Z,18.80
2018-10-18T12:20:38.844Z,19.10
2018-10-18T12:26:08.258Z,19.30
2018-10-18T12:31:37.568Z,19.50
2018-10-18T12:37:07.226Z,19.50
2018-10-18T12:42:38.292Z,19.60
2018-10-18T12:48:07.806Z,19.60
2018-10-18T12:53:37.117Z,19.90
2018-10-18T12:59:06.748Z,20.00
2018-10-18T13:04:36.418Z,20.20
2018-10-18T13:10:07.365Z,20.70
2018-10-18T13:15:36.725Z,21.00
2018-10-18T13:21:07.104Z,21.00
2018-10-18T13:26:36.909Z,21.20
2018-10-18T13:32:06.558Z,21.70
2018-10-18T13:37:35.788Z,22.40
2018-10-18T13:43:05.338Z,23.10
2018-10-18T13:48:34.709Z,24.30
2018-10-18T13:54:04.106Z,25.30
2018-10-18T14:00:22.196Z,25.60
2018-10-18T14:05:51.533Z,25.80
2018-10-18T14:11:20.930Z,25.10
2018-10-18T14:16:50.425Z,25.00
2018-10-18T14:22:20.424Z,24.90
2018-10-18T14:27:49.889Z,25.10
2018-10-18T14:33:20.578Z,25.20
2018-10-18T14:38:50.008Z,25.40
2018-10-18T14:44:19.559Z,25.10
2018-10-18T14:49:49.158Z,24.80
2018-10-18T14:55:18.636Z,24.50
2018-10-18T15:00:48.245Z,24.00
2018-10-18T15:06:17.617Z,23.00
2018-10-18T15:11:48.215Z,22.30
2018-10-18T15:17:17.723Z,21.60
2018-10-18T15:22:47.214Z,20.70
2018-10-18T15:28:16.737Z,20.10
2018-10-18T15:33:46.168Z,19.50
2018-10-18T15:39:15.875Z,19.10
2018-10-18T15:44:45.220Z,18.70
2018-10-18T15:50:14.608Z,18.40
2018-10-18T15:55:44.073Z,18.10
2018-10-18T16:01:13.641Z,17.80
2018-10-18T16:06:43.125Z,17.50
2018-10-18T16:12:12.545Z,17.30
2018-10-18T16:17:42.032Z,17.00
2018-10-18T16:23:11.474Z,16.80
2018-10-18T16:28:41.109Z,16.60
2018-10-18T16:34:10.481Z,16.40
2018-10-18T16:39:40.035Z,16.30
2018-10-18T16:45:12.541Z,16.10
2018-10-18T16:50:43.003Z,15.80
2018-10-18T16:56:12.714Z,15.70
2018-10-18T17:01:42.141Z,15.50
2018-10-18T17:07:13.396Z,15.40
2018-10-18T17:12:43.166Z,15.30
2018-10-18T17:18:18.668Z,15.10
2018-10-18T17:23:48.054Z,14.90
2018-10-18T17:29:17.822Z,14.70
2018-10-18T17:34:48.337Z,14.60
2018-10-18T17:40:17.969Z,14.40
2018-10-18T17:45:48.622Z,14.30
2018-10-18T17:51:18.108Z,14.00
2018-10-18T17:56:55.388Z,13.90
2018-10-18T18:02:25.166Z,13.80
2018-10-18T18:07:56.806Z,13.60
2018-10-18T18:13:27.899Z,13.50
2018-10-18T18:18:58.528Z,13.30
2018-10-18T18:24:28.181Z,13.20
2018-10-18T18:29:59.298Z,13.00
2018-10-18T18:35:28.744Z,12.90
2018-10-18T18:40:58.229Z,12.70
2018-10-18T18:46:27.620Z,12.60
2018-10-18T18:51:57.132Z,12.40
2018-10-18T18:57:27.571Z,12.30
2018-10-18T19:02:58.236Z,12.20
2018-10-18T19:08:29.631Z,12.10
2018-10-18T19:14:00.097Z,12.00
2018-10-18T19:19:33.333Z,11.90
2018-10-18T19:25:05.397Z,11.80
2018-10-18T19:30:35.771Z,11.70
2018-10-18T19:36:29.024Z,11.60
2018-10-18T19:42:00.474Z,11.50
2018-10-18T19:47:30.861Z,11.40
2018-10-18T19:53:00.177Z,11.30
2018-10-18T19:58:29.778Z,11.30
2018-10-18T20:04:00.084Z,11.20
2018-10-18T20:09:30.168Z,11.10
2018-10-18T20:14:59.689Z,11.00
2018-10-18T20:20:30.062Z,11.00
2018-10-18T20:26:05.577Z,10.90
2018-10-18T20:31:35.662Z,10.80
2018-10-18T20:37:05.541Z,10.70
2018-10-18T20:42:34.966Z,10.60
2018-10-18T20:48:04.594Z,10.50
2018-10-18T20:53:34.096Z,10.50
2018-10-18T20:59:04.669Z,10.40
2018-10-18T21:04:36.148Z,10.30
2018-10-18T21:10:05.613Z,10.30
2018-10-18T21:15:36.846Z,10.20
2018-10-18T21:21:07.346Z,10.20
2018-10-18T21:26:36.658Z,10.10
2018-10-18T21:32:06.289Z,10.00
2018-10-18T21:37:35.640Z,10.00
2018-10-18T21:43:05.022Z,9.90
2018-10-18T21:48:34.511Z,9.80
2018-10-18T21:54:03.959Z,9.80
2018-10-18T21:59:33.290Z,9.80
2018-10-18T22:05:02.917Z,9.70
2018-10-18T22:10:33.319Z,9.60
2018-10-18T22:16:02.892Z,9.60
2018-10-18T22:21:32.559Z,9.50
2018-10-18T22:27:02.051Z,9.50
2018-10-18T22:32:32.517Z,9.40
2018-10-18T22:38:01.863Z,9.30
2018-10-18T22:43:31.436Z,9.30
2018-10-18T22:49:01.970Z,9.20
2018-10-18T22:54:31.366Z,9.20
2018-10-18T23:00:01.767Z,9.10
2018-10-18T23:05:32.217Z,9.10
2018-10-18T23:11:01.623Z,9.00
2018-10-18T23:16:30.954Z,8.90
2018-10-18T23:22:00.369Z,8.90
2018-10-18T23:27:31.875Z,8.80
2018-10-18T23:33:01.421Z,8.80
2018-10-18T23:38:30.764Z,8.70
2018-10-18T23:44:01.170Z,8.70
2018-10-18T23:49:30.406Z,8.60
2018-10-18T23:54:59.679Z,8.60
